Time;durP1;ratioP1;P1;durP2;ratioP2;P2;SDS_P1;SDS_P2;PMS_P1;PMS_P2;Temp;Humidity;BMP_temperature;BMP_pressure;BME280_temperature;BME280_humidity;BME280_pressure;Samples;Min_cycle;Max_cycle;Signal;HPM_P1;HPM_P2
2021/06/11 00:01:13;;;;;;;14.05;9.75;;;;;;;;;;10291007;28;20098;-66
2021/06/11 00:06:10;;;;;;;15.07;9.20;;;;;;;;;;10285535;28;20045;-67
2021/06/11 00:11:06;;;;;;;14.52;9.02;;;;;;;;;;10274835;28;20047;-68
2021/06/11 00:16:02;;;;;;;11.07;8.68;;;;;;;;;;10278542;28;20076;-67
2021/06/11 00:20:59;;;;;;;12.30;9.70;;;;;;;;;;10292808;28;20057;-67
2021/06/11 00:25:55;;;;;;;13.13;9.65;;;;;;;;;;10283318;28;20502;-67
2021/06/11 00:30:51;;;;;;;11.20;8.82;;;;;;;;;;10288904;28;20047;-66
2021/06/11 00:35:48;;;;;;;14.57;9.10;;;;;;;;;;10287815;28;20055;-68
2021/06/11 00:40:45;;;;;;;11.50;8.75;;;;;;;;;;10295783;28;20094;-68
2021/06/11 00:45:42;;;;;;;14.35;9.20;;;;;;;;;;10281861;28;20131;-68
2021/06/11 00:50:38;;;;;;;12.07;8.73;;;;;;;;;;10287919;28;20098;-65
2021/06/11 00:55:35;;;;;;;12.30;9.30;;;;;;;;;;10285381;28;21614;-68
2021/06/11 01:00:31;;;;;;;12.02;9.23;;;;;;;;;;10282793;28;20044;-67
2021/06/11 01:05:27;;;;;;;15.13;10.15;;;;;;;;;;10278575;28;20560;-68
2021/06/11 01:10:24;;;;;;;13.95;10.02;;;;;;;;;;10284181;28;20124;-68
2021/06/11 01:15:22;;;;;;;13.52;9.60;;;;;;;;;;10273776;28;20091;-67
2021/06/11 01:20:18;;;;;;;13.30;10.57;;;;;;;;;;10285937;28;20049;-68
2021/06/11 01:25:22;;;;;;;11.93;9.80;;;;;;;;;;10277860;28;20098;-66
2021/06/11 01:30:23;;;;;;;12.30;9.73;;;;;;;;;;10266741;28;20128;-67
2021/06/11 01:35:21;;;;;;;14.32;10.57;;;;;;;;;;10279014;28;20533;-67
2021/06/11 01:40:18;;;;;;;12.70;9.05;;;;;;;;;;10272716;28;20127;-66
2021/06/11 01:45:15;;;;;;;15.63;10.25;;;;;;;;;;10280974;28;20041;-68
2021/06/11 01:50:19;;;;;;;13.30;11.90;;;;;;;;;;10274833;28;20475;-69
2021/06/11 01:55:15;;;;;;;14.65;11.20;;;;;;;;;;10255095;28;20045;-68
2021/06/11 02:00:13;;;;;;;15.52;11.50;;;;;;;;;;10275050;28;20135;-68
2021/06/11 02:05:10;;;;;;;15.32;12.48;;;;;;;;;;10275137;28;20044;-68
2021/06/11 02:10:07;;;;;;;15.77;12.30;;;;;;;;;;10262600;28;20073;-68
2021/06/11 02:15:06;;;;;;;15.50;12.75;;;;;;;;;;10268899;28;20127;-68
2021/06/11 02:20:03;;;;;;;18.30;13.85;;;;;;;;;;10273454;28;20049;-69
2021/06/11 02:24:59;;;;;;;18.33;13.60;;;;;;;;;;10261842;28;20136;-68
2021/06/11 02:29:56;;;;;;;15.80;13.07;;;;;;;;;;10272555;28;20052;-68
2021/06/11 02:34:52;;;;;;;19.23;13.55;;;;;;;;;;10270067;28;20705;-67
2021/06/11 02:39:49;;;;;;;17.17;14.43;;;;;;;;;;10275932;28;20422;-67
2021/06/11 02:44:48;;;;;;;18.55;15.38;;;;;;;;;;10272512;28;20064;-68
2021/06/11 02:49:48;;;;;;;18.02;15.35;;;;;;;;;;10265425;28;20125;-68
2021/06/11 02:54:44;;;;;;;22.48;17.73;;;;;;;;;;10265190;28;20079;-67
2021/06/11 02:59:48;;;;;;;23.88;17.95;;;;;;;;;;10275673;28;20166;-68
2021/06/11 03:04:46;;;;;;;23.88;16.90;;;;;;;;;;10283258;28;20048;-68
2021/06/11 03:09:43;;;;;;;22.35;17.00;;;;;;;;;;10274270;28;20094;-67
2021/06/11 03:14:40;;;;;;;23.00;17.98;;;;;;;;;;10277033;28;20458;-69
2021/06/11 03:19:39;;;;;;;21.50;17.17;;;;;;;;;;10271525;28;20061;-65
2021/06/11 03:24:39;;;;;;;27.30;19.35;;;;;;;;;;10277472;28;20029;-67
2021/06/11 03:29:39;;;;;;;26.90;19.55;;;;;;;;;;10267174;28;20478;-68
2021/06/11 03:34:38;;;;;;;23.48;19.33;;;;;;;;;;10273296;28;20442;-66
2021/06/11 03:39:38;;;;;;;28.10;20.90;;;;;;;;;;10284914;28;20868;-69
2021/06/11 03:44:35;;;;;;;30.88;24.30;;;;;;;;;;10267827;28;20490;-67
2021/06/11 03:49:33;;;;;;;35.22;25.05;;;;;;;;;;10272229;28;20079;-68
2021/06/11 03:54:30;;;;;;;34.58;28.23;;;;;;;;;;10289598;28;20581;-68
2021/06/11 03:59:27;;;;;;;39.05;29.08;;;;;;;;;;10282536;28;20522;-68
2021/06/11 04:04:23;;;;;;;33.63;26.92;;;;;;;;;;10281488;28;20072;-68
2021/06/11 04:09:25;;;;;;;31.80;26.92;;;;;;;;;;10273993;28;20127;-68
2021/06/11 04:14:25;;;;;;;33.88;25.95;;;;;;;;;;10277355;28;20107;-68
2021/06/11 04:19:33;;;;;;;31.05;24.00;;;;;;;;;;10276393;28;20045;-68
2021/06/11 04:24:30;;;;;;;29.70;24.17;;;;;;;;;;10278990;28;20098;-66
2021/06/11 04:29:30;;;;;;;35.25;27.25;;;;;;;;;;10284268;28;20033;-68
2021/06/11 04:34:27;;;;;;;36.85;29.05;;;;;;;;;;10288980;28;20136;-67
2021/06/11 04:39:23;;;;;;;41.28;31.30;;;;;;;;;;10274824;28;20080;-68
2021/06/11 04:44:21;;;;;;;41.40;31.10;;;;;;;;;;10278981;28;20128;-68
2021/06/11 04:49:17;;;;;;;37.90;31.15;;;;;;;;;;10276902;28;20556;-65
2021/06/11 04:54:14;;;;;;;34.97;28.08;;;;;;;;;;10265369;28;20835;-68
2021/06/11 04:59:10;;;;;;;41.92;32.53;;;;;;;;;;10279567;28;20526;-69
2021/06/11 05:04:06;;;;;;;40.40;29.85;;;;;;;;;;10277641;28;20037;-66
2021/06/11 05:09:03;;;;;;;45.30;32.30;;;;;;;;;;10285333;28;20556;-65
2021/06/11 05:13:59;;;;;;;35.63;26.67;;;;;;;;;;10277784;28;20068;-67
2021/06/11 05:18:55;;;;;;;35.85;27.92;;;;;;;;;;10275531;28;20128;-68
2021/06/11 05:23:52;;;;;;;32.53;26.27;;;;;;;;;;10281219;28;20780;-67
2021/06/11 05:28:48;;;;;;;32.58;26.40;;;;;;;;;;10279705;28;20041;-68
2021/06/11 05:33:44;;;;;;;33.92;23.98;;;;;;;;;;10293486;28;20469;-68
2021/06/11 05:38:41;;;;;;;23.63;19.15;;;;;;;;;;10270983;28;20499;-68
2021/06/11 05:43:37;;;;;;;22.95;17.23;;;;;;;;;;10290543;28;20478;-67
2021/06/11 05:48:36;;;;;;;17.80;13.05;;;;;;;;;;10282779;28;20048;-66
2021/06/11 05:53:32;;;;;;;24.88;17.55;;;;;;;;;;10276418;28;20037;-68
2021/06/11 05:58:29;;;;;;;20.65;16.42;;;;;;;;;;10258450;28;20076;-67
2021/06/11 06:03:25;;;;;;;23.90;15.52;;;;;;;;;;10281437;28;20068;-67
2021/06/11 06:08:21;;;;;;;17.90;13.45;;;;;;;;;;10254594;28;20137;-68
2021/06/11 06:13:18;;;;;;;19.55;14.57;;;;;;;;;;10281175;28;20065;-67
2021/06/11 06:18:14;;;;;;;20.75;14.82;;;;;;;;;;10283843;28;20056;-68
2021/06/11 06:23:10;;;;;;;16.23;13.50;;;;;;;;;;10280146;28;20045;-66
2021/06/11 06:28:07;;;;;;;16.75;12.98;;;;;;;;;;10280742;28;20154;-68
2021/06/11 06:33:03;;;;;;;16.25;12.98;;;;;;;;;;10277884;28;20068;-68
2021/06/11 06:37:59;;;;;;;13.93;10.50;;;;;;;;;;10276069;28;20165;-68
2021/06/11 06:42:56;;;;;;;12.55;9.43;;;;;;;;;;10273469;28;20415;-69
2021/06/11 06:47:52;;;;;;;12.30;8.65;;;;;;;;;;10275369;28;20140;-66
2021/06/11 06:52:56;;;;;;;10.88;7.28;;;;;;;;;;10280061;28;20179;-68
2021/06/11 06:57:52;;;;;;;14.93;8.43;;;;;;;;;;10277365;28;20560;-64
2021/06/11 07:02:49;;;;;;;11.75;7.40;;;;;;;;;;10273735;28;20479;-66
2021/06/11 07:07:45;;;;;;;14.38;7.32;;;;;;;;;;10269130;28;20412;-68
2021/06/11 07:12:42;;;;;;;9.85;6.55;;;;;;;;;;10288692;28;20100;-67
2021/06/11 07:17:39;;;;;;;9.90;6.85;;;;;;;;;;10283192;28;20067;-68
2021/06/11 07:22:36;;;;;;;8.07;4.80;;;;;;;;;;10283427;28;20558;-66
2021/06/11 07:27:33;;;;;;;7.15;3.90;;;;;;;;;;10283522;28;20840;-68
2021/06/11 07:32:29;;;;;;;9.05;4.82;;;;;;;;;;10290347;28;20421;-68
2021/06/11 07:37:26;;;;;;;7.85;4.65;;;;;;;;;;10285618;28;20091;-66
2021/06/11 07:42:23;;;;;;;9.25;4.40;;;;;;;;;;10285851;28;20093;-67
2021/06/11 07:47:20;;;;;;;11.85;4.28;;;;;;;;;;10277284;28;20700;-68
2021/06/11 07:52:16;;;;;;;8.93;4.55;;;;;;;;;;10281822;28;20046;-69
2021/06/11 07:57:12;;;;;;;7.68;3.95;;;;;;;;;;10276442;28;20045;-68
2021/06/11 08:02:10;;;;;;;8.95;3.97;;;;;;;;;;10278954;28;20041;-68
2021/06/11 08:07:06;;;;;;;6.43;3.63;;;;;;;;;;10279468;28;20045;-69
2021/06/11 08:12:03;;;;;;;6.15;3.22;;;;;;;;;;10272056;28;20139;-66
2021/06/11 08:16:59;;;;;;;6.07;2.83;;;;;;;;;;10281157;28;20402;-68
2021/06/11 08:21:56;;;;;;;4.88;2.40;;;;;;;;;;10277866;28;20056;-68
2021/06/11 08:26:52;;;;;;;10.73;3.60;;;;;;;;;;10285556;28;20102;-68
2021/06/11 08:31:49;;;;;;;8.23;3.20;;;;;;;;;;10290708;28;20045;-67
2021/06/11 08:36:46;;;;;;;6.85;3.47;;;;;;;;;;10284970;28;20056;-68
2021/06/11 08:41:43;;;;;;;5.93;3.20;;;;;;;;;;10265014;28;20146;-68
2021/06/11 08:46:40;;;;;;;5.28;2.42;;;;;;;;;;10279494;28;20135;-69
2021/06/11 08:51:36;;;;;;;6.38;3.13;;;;;;;;;;10279771;28;20086;-67
2021/06/11 08:56:32;;;;;;;6.05;2.55;;;;;;;;;;10278350;28;20462;-66
2021/06/11 09:01:29;;;;;;;6.55;2.95;;;;;;;;;;10288553;28;20123;-68
2021/06/11 09:06:26;;;;;;;10.02;4.78;;;;;;;;;;10282516;28;20132;-68
2021/06/11 09:11:26;;;;;;;7.25;4.15;;;;;;;;;;10271606;28;20098;-68
2021/06/11 09:16:25;;;;;;;6.60;4.57;;;;;;;;;;10277570;28;20044;-67
2021/06/11 09:22:01;;;;;;;6.95;4.32;;;;;;;;;;10285950;28;20072;-67
2021/06/11 09:27:08;;;;;;;7.80;3.78;;;;;;;;;;10176037;28;20053;-67
2021/06/11 09:32:09;;;;;;;8.25;4.50;;;;;;;;;;10276306;28;20041;-68
2021/06/11 09:37:07;;;;;;;8.57;4.25;;;;;;;;;;10275145;28;20045;-67
2021/06/11 09:42:04;;;;;;;9.00;3.97;;;;;;;;;;10283012;28;20494;-68
2021/06/11 09:47:00;;;;;;;7.72;3.78;;;;;;;;;;10274778;28;20499;-67
2021/06/11 09:52:07;;;;;;;9.05;3.80;;;;;;;;;;10277893;28;20098;-68
2021/06/11 09:57:19;;;;;;;8.25;4.22;;;;;;;;;;10283406;28;20135;-69
2021/06/11 10:02:20;;;;;;;6.45;3.88;;;;;;;;;;10267049;28;20075;-67
2021/06/11 10:07:17;;;;;;;10.75;5.13;;;;;;;;;;10276458;28;20049;-67
2021/06/11 10:12:13;;;;;;;7.70;4.63;;;;;;;;;;10279971;28;20494;-66
2021/06/11 10:17:09;;;;;;;8.40;4.60;;;;;;;;;;10262867;28;20044;-65
2021/06/11 10:22:06;;;;;;;9.07;4.95;;;;;;;;;;10283870;28;20048;-67
2021/06/11 10:27:03;;;;;;;8.80;4.30;;;;;;;;;;10272589;28;20040;-68
2021/06/11 10:32:01;;;;;;;8.05;4.25;;;;;;;;;;10286698;28;20048;-66
2021/06/11 10:36:57;;;;;;;6.30;3.78;;;;;;;;;;10285178;28;20048;-68
2021/06/11 10:42:05;;;;;;;7.55;4.20;;;;;;;;;;10285284;28;20049;-68
2021/06/11 10:47:16;;;;;;;7.47;3.72;;;;;;;;;;10278447;28;20521;-68
2021/06/11 10:52:32;;;;;;;9.18;4.85;;;;;;;;;;10285519;28;20062;-67
2021/06/11 10:57:30;;;;;;;6.72;3.90;;;;;;;;;;10279037;28;20075;-68
2021/06/11 11:02:45;;;;;;;7.38;4.03;;;;;;;;;;10278306;28;20079;-68
2021/06/11 11:07:49;;;;;;;9.90;4.20;;;;;;;;;;10285758;28;20037;-68
2021/06/11 11:12:59;;;;;;;8.88;4.43;;;;;;;;;;10275666;28;20118;-68
2021/06/11 11:17:56;;;;;;;7.70;5.07;;;;;;;;;;10279711;28;20106;-67
2021/06/11 11:22:53;;;;;;;8.98;4.72;;;;;;;;;;10280101;28;20068;-68
2021/06/11 11:27:52;;;;;;;6.88;4.05;;;;;;;;;;10275957;28;20057;-68
2021/06/11 11:32:50;;;;;;;7.55;3.88;;;;;;;;;;10286464;28;20076;-68
2021/06/11 11:37:52;;;;;;;6.88;3.78;;;;;;;;;;10276744;28;20044;-68
2021/06/11 11:42:56;;;;;;;6.43;3.30;;;;;;;;;;10271950;28;20095;-65
2021/06/11 11:47:57;;;;;;;5.70;3.10;;;;;;;;;;10275109;28;20395;-65
2021/06/11 11:52:54;;;;;;;5.50;2.92;;;;;;;;;;10259714;28;20046;-69
2021/06/11 11:57:51;;;;;;;7.35;3.65;;;;;;;;;;10273142;28;20045;-66
2021/06/11 12:02:48;;;;;;;6.63;3.20;;;;;;;;;;10272163;28;20484;-65
2021/06/11 12:07:44;;;;;;;4.72;3.20;;;;;;;;;;10278035;28;20098;-69
2021/06/11 12:12:40;;;;;;;6.30;2.92;;;;;;;;;;10284067;28;20494;-68
2021/06/11 12:17:37;;;;;;;7.25;3.10;;;;;;;;;;10283892;28;20041;-65
2021/06/11 12:22:33;;;;;;;5.68;2.88;;;;;;;;;;10284411;28;20054;-67
2021/06/11 12:27:30;;;;;;;11.15;3.28;;;;;;;;;;10287597;28;20055;-66
2021/06/11 12:32:26;;;;;;;6.95;2.50;;;;;;;;;;10289265;28;20044;-67
2021/06/11 12:37:22;;;;;;;5.15;2.88;;;;;;;;;;10268352;28;20049;-67
2021/06/11 12:42:20;;;;;;;6.05;2.40;;;;;;;;;;10280455;28;20081;-68
2021/06/11 12:47:16;;;;;;;5.15;2.40;;;;;;;;;;10281020;28;20071;-68
2021/06/11 12:52:13;;;;;;;4.90;2.45;;;;;;;;;;10275908;28;20048;-66
2021/06/11 12:57:13;;;;;;;5.50;2.83;;;;;;;;;;10278790;28;20040;-67
2021/06/11 13:02:09;;;;;;;5.88;2.08;;;;;;;;;;10272522;28;20064;-66
2021/06/11 13:07:05;;;;;;;6.50;2.47;;;;;;;;;;10281815;28;20071;-67
2021/06/11 13:12:02;;;;;;;4.65;2.30;;;;;;;;;;10275796;28;20132;-68
2021/06/11 13:16:58;;;;;;;4.70;2.35;;;;;;;;;;10282860;28;20048;-68
2021/06/11 13:21:54;;;;;;;3.50;2.10;;;;;;;;;;10283748;28;20542;-67
2021/06/11 13:26:51;;;;;;;5.40;2.22;;;;;;;;;;10277971;28;20463;-68
2021/06/11 13:31:48;;;;;;;3.90;1.90;;;;;;;;;;10287927;28;20071;-68
2021/06/11 13:36:44;;;;;;;3.80;1.90;;;;;;;;;;10284329;28;20048;-67
2021/06/11 13:41:41;;;;;;;4.95;1.75;;;;;;;;;;10289547;28;20482;-66
2021/06/11 13:46:37;;;;;;;5.20;1.77;;;;;;;;;;10265590;28;20094;-67
2021/06/11 13:51:34;;;;;;;3.50;1.70;;;;;;;;;;10282760;28;20503;-68
2021/06/11 13:56:30;;;;;;;8.10;2.17;;;;;;;;;;10288966;28;20456;-68
2021/06/11 14:01:26;;;;;;;3.70;1.85;;;;;;;;;;10281848;28;20526;-68
2021/06/11 14:06:22;;;;;;;7.20;2.22;;;;;;;;;;10277033;28;20080;-68
2021/06/11 14:11:19;;;;;;;7.25;3.00;;;;;;;;;;10269060;28;20179;-68
2021/06/11 14:16:15;;;;;;;5.35;3.00;;;;;;;;;;10273668;28;20143;-68
2021/06/11 14:21:12;;;;;;;4.53;2.20;;;;;;;;;;10278677;28;20040;-67
2021/06/11 14:26:08;;;;;;;4.10;2.58;;;;;;;;;;10271889;28;20036;-67
2021/06/11 14:31:04;;;;;;;7.47;2.63;;;;;;;;;;10283484;28;20040;-67
2021/06/11 14:36:01;;;;;;;3.70;2.03;;;;;;;;;;10286492;28;20048;-68
2021/06/11 14:40:57;;;;;;;5.00;2.10;;;;;;;;;;10280643;28;20479;-69
2021/06/11 14:45:53;;;;;;;4.57;1.95;;;;;;;;;;10280913;28;20094;-66
2021/06/11 14:50:50;;;;;;;4.32;1.63;;;;;;;;;;10280343;28;20418;-67
2021/06/11 14:55:54;;;;;;;4.05;2.00;;;;;;;;;;10284917;28;20139;-68
2021/06/11 15:00:50;;;;;;;5.40;2.72;;;;;;;;;;10261161;28;20149;-69
2021/06/11 15:05:46;;;;;;;5.32;2.83;;;;;;;;;;10278355;28;20048;-68
2021/06/11 15:10:43;;;;;;;6.65;2.72;;;;;;;;;;10278965;28;20073;-68
2021/06/11 15:15:40;;;;;;;5.00;3.30;;;;;;;;;;10282634;28;20049;-67
2021/06/11 15:20:36;;;;;;;7.40;4.03;;;;;;;;;;10273697;28;20114;-67
2021/06/11 15:25:33;;;;;;;4.93;2.03;;;;;;;;;;10270018;28;20124;-67
2021/06/11 15:30:30;;;;;;;6.05;2.63;;;;;;;;;;10283961;28;20051;-68
2021/06/11 15:35:29;;;;;;;3.67;2.03;;;;;;;;;;10278940;28;20041;-68
2021/06/11 15:40:25;;;;;;;5.35;2.75;;;;;;;;;;10289997;28;20052;-68
2021/06/11 15:45:21;;;;;;;3.85;1.80;;;;;;;;;;10282196;28;20140;-69
2021/06/11 15:50:18;;;;;;;8.02;4.95;;;;;;;;;;10286711;28;20069;-69
2021/06/11 15:55:14;;;;;;;2.35;1.30;;;;;;;;;;10280332;28;20183;-67
2021/06/11 16:00:11;;;;;;;4.07;1.77;;;;;;;;;;10291599;28;20088;-67
2021/06/11 16:05:08;;;;;;;5.25;1.60;;;;;;;;;;10286924;28;20084;-69
2021/06/11 16:10:04;;;;;;;4.07;1.17;;;;;;;;;;10271504;28;20046;-68
2021/06/11 16:15:01;;;;;;;3.05;1.35;;;;;;;;;;10278499;28;20494;-67
2021/06/11 16:19:57;;;;;;;3.03;1.30;;;;;;;;;;10278357;28;20236;-67
2021/06/11 16:24:54;;;;;;;3.33;1.40;;;;;;;;;;10288444;28;20041;-66
2021/06/11 16:29:50;;;;;;;3.90;1.33;;;;;;;;;;10272823;28;20102;-67
2021/06/11 16:34:46;;;;;;;3.40;1.50;;;;;;;;;;10284258;28;20477;-67
2021/06/11 16:39:45;;;;;;;4.43;1.70;;;;;;;;;;10281554;28;20079;-68
2021/06/11 16:44:41;;;;;;;7.10;1.40;;;;;;;;;;10284647;28;20041;-67
2021/06/11 16:49:38;;;;;;;4.00;1.67;;;;;;;;;;10287133;28;20069;-68
2021/06/11 16:54:34;;;;;;;3.30;1.50;;;;;;;;;;10280209;28;20124;-68
2021/06/11 16:59:30;;;;;;;3.75;2.40;;;;;;;;;;10275661;28;20045;-66
2021/06/11 17:04:27;;;;;;;7.30;2.33;;;;;;;;;;10271832;28;20127;-68
2021/06/11 17:09:24;;;;;;;3.80;2.10;;;;;;;;;;10283211;28;20455;-68
2021/06/11 17:14:20;;;;;;;6.82;3.00;;;;;;;;;;10286584;28;20037;-68
2021/06/11 17:19:17;;;;;;;4.90;2.30;;;;;;;;;;10285122;28;20804;-67
2021/06/11 17:24:23;;;;;;;7.20;3.85;;;;;;;;;;10273379;28;20135;-68
2021/06/11 17:29:40;;;;;;;8.27;4.10;;;;;;;;;;10286626;28;20068;-67
2021/06/11 17:34:38;;;;;;;7.18;3.00;;;;;;;;;;10277610;28;20036;-64
2021/06/11 17:39:35;;;;;;;8.65;5.45;;;;;;;;;;10276436;28;20074;-66
2021/06/11 17:44:35;;;;;;;7.18;4.47;;;;;;;;;;10286382;28;20171;-67
2021/06/11 17:49:36;;;;;;;10.70;3.42;;;;;;;;;;10278988;28;20041;-68
2021/06/11 17:54:33;;;;;;;5.22;3.50;;;;;;;;;;10263292;28;20115;-67
2021/06/11 17:59:33;;;;;;;7.18;4.93;;;;;;;;;;10282396;28;20135;-66
2021/06/11 18:04:31;;;;;;;6.45;4.18;;;;;;;;;;10258111;28;20100;-67
2021/06/11 18:09:29;;;;;;;5.72;3.30;;;;;;;;;;10282248;28;20127;-68
2021/06/11 18:14:25;;;;;;;7.68;3.90;;;;;;;;;;10282970;28;20441;-68
2021/06/11 18:19:22;;;;;;;5.75;3.33;;;;;;;;;;10278410;28;20045;-66
2021/06/11 18:24:25;;;;;;;6.50;2.40;;;;;;;;;;10278444;28;20131;-67
2021/06/11 18:29:40;;;;;;;5.65;2.72;;;;;;;;;;10283332;28;20478;-66
2021/06/11 18:34:50;;;;;;;6.05;3.25;;;;;;;;;;10273248;28;20165;-65
2021/06/11 18:39:46;;;;;;;7.78;4.22;;;;;;;;;;10289854;28;20542;-68
2021/06/11 18:44:46;;;;;;;7.03;4.43;;;;;;;;;;10277550;28;20097;-64
2021/06/11 18:49:44;;;;;;;8.57;5.68;;;;;;;;;;10279226;28;20127;-67
2021/06/11 18:54:40;;;;;;;10.93;7.80;;;;;;;;;;10286276;28;20132;-66
2021/06/11 18:59:37;;;;;;;11.75;7.70;;;;;;;;;;10277529;28;20070;-66
2021/06/11 19:04:33;;;;;;;11.13;7.93;;;;;;;;;;10275875;28;20689;-67
2021/06/11 19:09:34;;;;;;;12.30;8.70;;;;;;;;;;10282542;28;20132;-66
2021/06/11 19:14:30;;;;;;;11.13;7.95;;;;;;;;;;10279302;28;20528;-65
2021/06/11 19:19:27;;;;;;;10.90;6.85;;;;;;;;;;10279359;28;20045;-68
2021/06/11 19:24:25;;;;;;;12.30;7.28;;;;;;;;;;10287009;28;20060;-68
2021/06/11 19:29:30;;;;;;;12.70;7.63;;;;;;;;;;10276078;28;20123;-68
2021/06/11 19:34:27;;;;;;;9.73;6.60;;;;;;;;;;10287848;28;20033;-67
2021/06/11 19:39:39;;;;;;;11.07;7.40;;;;;;;;;;10279065;28;20128;-66
2021/06/11 19:44:35;;;;;;;14.05;7.28;;;;;;;;;;10268605;28;20116;-67
2021/06/11 19:49:32;;;;;;;12.07;6.28;;;;;;;;;;10277872;28;20036;-66
2021/06/11 19:54:28;;;;;;;7.82;6.32;;;;;;;;;;10285826;28;20041;-67
2021/06/11 19:59:26;;;;;;;13.23;6.28;;;;;;;;;;10285864;28;20036;-68
2021/06/11 20:04:22;;;;;;;12.00;6.53;;;;;;;;;;10284428;28;20115;-67
2021/06/11 20:09:19;;;;;;;9.32;6.22;;;;;;;;;;10270000;28;20149;-66
2021/06/11 20:14:15;;;;;;;8.57;5.50;;;;;;;;;;10262644;28;20049;-67
2021/06/11 20:19:12;;;;;;;10.45;5.88;;;;;;;;;;10273161;28;20045;-66
2021/06/11 20:24:15;;;;;;;10.00;5.63;;;;;;;;;;10286265;28;20086;-67
2021/06/11 20:29:11;;;;;;;13.32;6.95;;;;;;;;;;10282552;28;20392;-67
2021/06/11 20:34:08;;;;;;;8.95;5.47;;;;;;;;;;10283680;28;20127;-67
2021/06/11 20:39:04;;;;;;;9.10;5.75;;;;;;;;;;10276157;28;20040;-68
2021/06/11 20:44:00;;;;;;;7.00;5.40;;;;;;;;;;10284028;28;20202;-67
2021/06/11 20:48:57;;;;;;;5.85;3.65;;;;;;;;;;10279545;28;20044;-67
2021/06/11 20:53:54;;;;;;;6.85;4.38;;;;;;;;;;10289926;28;20113;-64
2021/06/11 20:58:50;;;;;;;7.00;4.03;;;;;;;;;;10281274;28;20091;-67
2021/06/11 21:03:46;;;;;;;6.50;3.95;;;;;;;;;;10293367;28;20037;-68
2021/06/11 21:08:44;;;;;;;6.15;3.33;;;;;;;;;;10282925;28;20041;-68
2021/06/11 21:13:40;;;;;;;7.22;3.58;;;;;;;;;;10254223;28;20106;-66
2021/06/11 21:18:37;;;;;;;7.25;3.88;;;;;;;;;;10279677;28;20045;-64
2021/06/11 21:23:33;;;;;;;5.65;2.70;;;;;;;;;;10278197;28;20510;-67
2021/06/11 21:28:29;;;;;;;5.75;2.40;;;;;;;;;;10276737;28;20164;-67
2021/06/11 21:33:25;;;;;;;7.47;3.15;;;;;;;;;;10260494;28;20124;-65
2021/06/11 21:38:22;;;;;;;7.00;2.78;;;;;;;;;;10262518;28;20055;-65
2021/06/11 21:43:19;;;;;;;3.97;2.00;;;;;;;;;;10274232;28;20051;-67
2021/06/11 21:48:16;;;;;;;6.47;3.22;;;;;;;;;;10280135;28;20128;-66
2021/06/11 21:53:12;;;;;;;5.85;2.40;;;;;;;;;;10285090;28;20110;-67
2021/06/11 21:58:09;;;;;;;6.32;2.83;;;;;;;;;;10274105;28;20144;-68
2021/06/11 22:03:05;;;;;;;6.25;2.92;;;;;;;;;;10261820;28;20778;-68
2021/06/11 22:08:02;;;;;;;5.05;2.42;;;;;;;;;;10270217;28;20238;-68
2021/06/11 22:12:58;;;;;;;8.43;2.45;;;;;;;;;;10278731;28;20490;-68
2021/06/11 22:17:54;;;;;;;4.22;1.88;;;;;;;;;;10278922;28;20052;-63
2021/06/11 22:22:51;;;;;;;5.10;2.13;;;;;;;;;;10274860;28;20048;-68
2021/06/11 22:27:51;;;;;;;6.07;3.10;;;;;;;;;;10283825;28;20044;-67
2021/06/11 22:32:48;;;;;;;4.72;2.30;;;;;;;;;;10277280;28;20059;-66
2021/06/11 22:37:45;;;;;;;6.95;2.20;;;;;;;;;;10279226;28;20040;-68
2021/06/11 22:42:41;;;;;;;6.15;2.50;;;;;;;;;;10277181;28;20060;-67
2021/06/11 22:47:38;;;;;;;6.22;3.00;;;;;;;;;;10283368;28;20509;-66
2021/06/11 22:52:35;;;;;;;7.18;2.60;;;;;;;;;;10270795;28;20103;-67
2021/06/11 22:57:31;;;;;;;5.05;2.35;;;;;;;;;;10267320;28;20060;-68
2021/06/11 23:02:27;;;;;;;6.88;4.03;;;;;;;;;;10276940;28;20052;-68
2021/06/11 23:07:24;;;;;;;5.85;3.35;;;;;;;;;;10268778;28;20099;-68
2021/06/11 23:12:20;;;;;;;7.25;3.60;;;;;;;;;;10284098;28;20048;-66
2021/06/11 23:17:16;;;;;;;4.32;2.53;;;;;;;;;;10264939;28;20410;-65
2021/06/11 23:22:12;;;;;;;6.15;2.03;;;;;;;;;;10283553;28;20132;-64
2021/06/11 23:27:09;;;;;;;4.70;2.20;;;;;;;;;;10269274;28;20044;-67
2021/06/11 23:32:05;;;;;;;5.20;2.85;;;;;;;;;;10278119;28;20036;-67
2021/06/11 23:37:02;;;;;;;5.70;2.63;;;;;;;;;;10270813;28;20858;-67
2021/06/11 23:41:58;;;;;;;6.45;2.60;;;;;;;;;;10275049;28;20036;-68
2021/06/11 23:46:54;;;;;;;4.10;1.90;;;;;;;;;;10274628;28;20135;-65
2021/06/11 23:51:52;;;;;;;6.38;2.17;;;;;;;;;;10283169;28;20045;-68
2021/06/11 23:56:49;;;;;;;5.40;2.78;;;;;;;;;;10284648;28;20140;-67
